Time;durP1;ratioP1;P1;durP2;ratioP2;P2;SDS_P1;SDS_P2;PMS_P1;PMS_P2;Temp;Humidity;BMP_temperature;BMP_pressure;BME280_temperature;BME280_humidity;BME280_pressure;Samples;Min_cycle;Max_cycle;Signal;HPM_P1;HPM_P2
2021/07/28 00:02:10;;;;;;;11.20;5.17;;;;;;;15.35;100.00;-19565.59;5080154;28;20093;-70
2021/07/28 00:04:40;;;;;;;13.00;5.40;;;;;;;15.35;100.00;-19565.59;5082815;28;20032;-70
2021/07/28 00:07:08;;;;;;;10.83;5.60;;;;;;;15.37;100.00;-19566.09;5080232;28;20043;-70
2021/07/28 00:09:34;;;;;;;13.23;5.80;;;;;;;15.39;100.00;-19566.50;5080584;28;20097;-70
2021/07/28 00:11:59;;;;;;;11.87;5.70;;;;;;;15.38;100.00;-19566.25;5079517;28;20028;-70
2021/07/28 00:14:25;;;;;;;10.20;5.40;;;;;;;15.42;100.00;-19567.28;5081602;28;20054;-70
2021/07/28 00:16:50;;;;;;;11.90;5.73;;;;;;;15.44;100.00;-19567.81;5079781;28;20240;-70
2021/07/28 00:19:19;;;;;;;12.40;6.03;;;;;;;15.46;100.00;-19568.34;5087690;28;20032;-70
2021/07/28 00:24:31;;;;;;;14.67;5.83;;;;;;;15.43;100.00;-19567.56;5079448;28;20511;-71
2021/07/28 00:26:59;;;;;;;14.70;5.73;;;;;;;15.46;100.00;-19568.34;5070692;28;20039;-70
2021/07/28 00:29:28;;;;;;;15.63;6.27;;;;;;;15.47;100.00;-19568.59;5084294;28;20291;-70
2021/07/28 00:31:54;;;;;;;12.30;6.27;;;;;;;15.47;100.00;-19568.59;5084778;28;20098;-70
2021/07/28 00:34:19;;;;;;;12.60;5.97;;;;;;;15.51;100.00;-19569.66;5081099;28;20051;-70
2021/07/28 00:36:44;;;;;;;13.30;6.47;;;;;;;15.47;100.00;-19568.59;5079593;28;20109;-70
2021/07/28 00:39:10;;;;;;;12.70;6.10;;;;;;;15.46;100.00;-19568.47;5081737;28;20032;-71
2021/07/28 00:41:48;;;;;;;13.57;6.10;;;;;;;15.42;100.00;-19567.28;5079074;28;20032;-70
2021/07/28 00:44:14;;;;;;;12.10;5.33;;;;;;;15.35;100.00;-19565.44;5080339;28;20032;-70
2021/07/28 00:46:40;;;;;;;12.07;6.10;;;;;;;15.29;100.00;-18880.59;5078849;28;20035;-70
2021/07/28 00:49:06;;;;;;;11.00;5.67;;;;;;;15.19;100.00;-17772.19;5079293;28;20121;-70
2021/07/28 00:51:32;;;;;;;12.43;5.70;;;;;;;15.15;100.00;-12724.28;5079059;28;20115;-70
2021/07/28 00:53:58;;;;;;;12.63;5.37;;;;;;;15.14;100.00;-6850.56;5088805;28;20020;-70
2021/07/28 00:56:25;;;;;;;12.47;5.97;;;;;;;15.11;100.00;-9135.75;5079238;28;20500;-70
2021/07/28 00:58:51;;;;;;;12.80;5.87;;;;;;;15.05;100.00;-6523.50;5084671;28;20465;-70
2021/07/28 01:01:17;;;;;;;13.10;5.30;;;;;;;15.02;100.00;-3255.97;5079942;28;20165;-69
2021/07/28 01:03:42;;;;;;;10.47;5.57;;;;;;;15.00;100.00;-2602.16;5079000;28;20032;-69
2021/07/28 01:06:09;;;;;;;13.83;6.10;;;;;;;14.97;100.00;1978.13;5078760;28;20177;-69
2021/07/28 01:08:35;;;;;;;14.80;5.90;;;;;;;14.95;100.00;3615.34;5077559;28;20147;-68
2021/07/28 01:11:02;;;;;;;14.33;6.17;;;;;;;14.92;100.00;5253.06;5079079;28;20507;-69
2021/07/28 01:13:34;;;;;;;14.63;6.03;;;;;;;14.85;100.00;5907.44;5093282;28;20157;-69
2021/07/28 01:16:13;;;;;;;13.93;6.38;;;;;;;14.80;100.00;5251.34;5082379;28;20052;-69
2021/07/28 01:18:40;;;;;;;13.30;5.90;;;;;;;14.79;100.00;7545.47;5094139;28;20028;-69
2021/07/28 01:21:09;;;;;;;13.83;6.43;;;;;;;14.81;100.00;9185.47;5090265;28;20058;-69
2021/07/28 01:23:35;;;;;;;12.63;5.57;;;;;;;14.82;100.00;11154.47;5091107;28;20028;-69
2021/07/28 01:26:04;;;;;;;15.47;6.20;;;;;;;14.82;100.00;11154.47;5079651;28;20034;-69
2021/07/28 01:28:31;;;;;;;15.37;6.27;;;;;;;14.83;100.00;11811.25;5089591;28;20039;-69
2021/07/28 01:31:10;;;;;;;14.20;6.70;;;;;;;14.87;100.00;10827.44;5082682;28;20024;-69
2021/07/28 01:33:38;;;;;;;13.97;6.73;;;;;;;14.87;100.00;9186.84;5082600;28;20377;-69
2021/07/28 01:36:07;;;;;;;12.97;6.27;;;;;;;14.88;100.00;10499.47;5082739;28;20066;-69
2021/07/28 01:38:33;;;;;;;15.23;6.63;;;;;;;14.86;100.00;10499.00;5088095;28;20512;-69
2021/07/28 01:41:00;;;;;;;13.00;6.10;;;;;;;14.79;100.00;6561.94;5082765;28;20035;-69
2021/07/28 01:43:27;;;;;;;15.57;6.97;;;;;;;14.79;100.00;9185.06;5087495;28;20036;-68
2021/07/28 01:45:54;;;;;;;14.80;6.47;;;;;;;14.77;100.00;11481.63;5082274;28;20024;-68
2021/07/28 01:48:20;;;;;;;15.93;6.77;;;;;;;14.76;100.00;12794.56;5086007;28;20031;-68
2021/07/28 01:50:46;;;;;;;19.57;7.10;;;;;;;14.70;100.00;10167.34;5082876;28;20253;-68
2021/07/28 01:53:11;;;;;;;13.70;5.87;;;;;;;14.70;100.00;13777.94;5085232;28;20032;-69
2021/07/28 01:55:37;;;;;;;14.30;6.03;;;;;;;14.69;100.00;17063.69;5082502;28;20024;-69
2021/07/28 01:58:03;;;;;;;15.10;6.73;;;;;;;14.71;100.00;15749.41;5083617;28;20092;-69
2021/07/28 02:00:29;;;;;;;14.70;6.23;;;;;;;14.70;100.00;13778.09;5082219;28;20581;-69
2021/07/28 02:03:02;;;;;;;15.17;6.57;;;;;;;14.67;100.00;14105.66;5082217;28;20036;-69
2021/07/28 02:05:28;;;;;;;13.50;6.03;;;;;;;14.69;100.00;14106.09;5081951;28;20347;-69
2021/07/28 02:07:53;;;;;;;17.10;6.97;;;;;;;14.68;100.00;11479.25;5083914;28;20655;-69
2021/07/28 02:10:19;;;;;;;14.63;6.83;;;;;;;14.63;100.00;12462.91;5082269;28;20287;-69
2021/07/28 02:12:44;;;;;;;13.87;6.53;;;;;;;14.58;100.00;14431.59;5082912;28;20063;-69
2021/07/28 02:15:10;;;;;;;14.60;6.20;;;;;;;14.55;100.00;17387.78;5081928;28;20032;-69
2021/07/28 02:17:35;;;;;;;17.60;6.43;;;;;;;14.54;100.00;20018.09;5086881;28;20051;-72
2021/07/28 02:20:01;;;;;;;19.00;6.80;;;;;;;14.56;100.00;21335.06;5090556;28;20032;-72
2021/07/28 02:22:26;;;;;;;16.23;6.93;;;;;;;14.56;100.00;22981.00;5085068;28;20051;-73
2021/07/28 02:24:52;;;;;;;14.73;6.57;;;;;;;14.60;100.00;21665.84;5088216;28;20102;-73
2021/07/28 02:27:17;;;;;;;17.10;6.77;;;;;;;14.64;100.00;17390.88;5083061;28;20086;-73
2021/07/28 02:29:43;;;;;;;15.90;6.90;;;;;;;14.72;100.00;13121.72;5091071;28;20034;-73
2021/07/28 02:32:08;;;;;;;16.50;6.70;;;;;;;14.79;100.00;11482.00;5082517;28;20283;-73
2021/07/28 02:34:34;;;;;;;18.80;6.93;;;;;;;14.87;100.00;9514.81;5091444;28;20073;-73
2021/07/28 02:36:59;;;;;;;18.00;7.07;;;;;;;14.95;100.00;7876.25;5081629;28;20028;-70
2021/07/28 02:39:25;;;;;;;19.20;7.27;;;;;;;15.04;100.00;6566.13;5090941;28;20028;-70
2021/07/28 02:41:51;;;;;;;17.97;7.67;;;;;;;15.08;100.00;8206.66;5081553;28;20111;-70
2021/07/28 02:44:17;;;;;;;17.10;6.83;;;;;;;15.10;100.00;5255.69;5089537;28;20112;-70
2021/07/28 02:46:42;;;;;;;18.80;7.90;;;;;;;15.16;100.00;10505.97;5081418;28;20031;-70
2021/07/28 02:49:09;;;;;;;20.27;8.30;;;;;;;15.20;100.00;10506.88;5084565;28;20036;-70
2021/07/28 02:51:34;;;;;;;18.70;8.00;;;;;;;15.22;100.00;9193.97;5080989;28;20476;-70
2021/07/28 02:54:00;;;;;;;16.90;7.43;;;;;;;15.22;100.00;9522.34;5087795;28;20052;-70
2021/07/28 02:56:25;;;;;;;19.97;7.43;;;;;;;15.27;100.00;8210.25;5081318;28;20032;-70
2021/07/28 02:58:51;;;;;;;16.23;7.30;;;;;;;15.20;100.00;5257.13;5086795;28;20074;-70
2021/07/28 03:01:16;;;;;;;17.10;7.37;;;;;;;15.16;100.00;5912.28;5079452;28;20043;-70
2021/07/28 03:03:42;;;;;;;16.77;7.27;;;;;;;15.10;100.00;8863.41;5085415;28;20115;-70
2021/07/28 03:06:07;;;;;;;16.33;7.47;;;;;;;15.08;100.00;9519.22;5080782;28;20316;-70
2021/07/28 03:08:33;;;;;;;18.37;7.50;;;;;;;15.08;100.00;12145.91;5087281;28;20070;-70
2021/07/28 03:10:59;;;;;;;16.37;7.27;;;;;;;15.03;100.00;15759.59;5081089;28;20127;-70
2021/07/28 03:13:24;;;;;;;18.93;7.57;;;;;;;15.02;100.00;19707.19;5090188;28;20027;-70
2021/07/28 03:15:50;;;;;;;17.50;7.43;;;;;;;15.01;100.00;19706.59;5080573;28;20064;-70
2021/07/28 03:18:16;;;;;;;19.67;7.50;;;;;;;15.03;100.00;20695.28;5089091;28;20059;-70
2021/07/28 03:20:44;;;;;;;20.37;7.97;;;;;;;15.09;100.00;22015.03;5080827;28;20028;-70
2021/07/28 03:23:10;;;;;;;18.20;7.63;;;;;;;15.14;100.00;25313.81;5082181;28;20081;-70
2021/07/28 03:25:36;;;;;;;20.23;7.57;;;;;;;15.18;100.00;21359.91;5080698;28;20058;-70
2021/07/28 03:28:01;;;;;;;20.47;8.30;;;;;;;15.25;100.00;20374.69;5087171;28;20092;-70
2021/07/28 03:30:27;;;;;;;18.97;7.10;;;;;;;15.32;100.00;15768.50;5080712;28;20027;-70
2021/07/28 03:32:52;;;;;;;18.63;8.30;;;;;;;15.39;100.00;12153.81;5087166;28;20482;-70
2021/07/28 03:35:18;;;;;;;19.00;8.07;;;;;;;15.44;100.00;8213.56;5080324;28;20020;-70
2021/07/28 03:37:47;;;;;;;17.73;8.13;;;;;;;15.47;100.00;3293.56;5085907;28;20096;-70
2021/07/28 03:40:13;;;;;;;16.83;7.37;;;;;;;15.48;100.00;5261.06;5080542;28;20457;-70
2021/07/28 03:42:40;;;;;;;19.13;7.97;;;;;;;15.49;100.00;-964.84;5084580;28;20032;-70
2021/07/28 03:45:06;;;;;;;16.77;7.43;;;;;;;15.51;100.00;-5218.09;5079697;28;20086;-70
2021/07/28 03:47:32;;;;;;;20.10;7.80;;;;;;;15.53;100.00;-5218.16;5083821;28;20248;-70
2021/07/28 03:49:57;;;;;;;19.20;7.77;;;;;;;15.53;100.00;-4891.16;5080195;28;20389;-70
2021/07/28 03:52:23;;;;;;;19.57;7.97;;;;;;;15.58;100.00;-3255.69;5082651;28;20205;-70
2021/07/28 03:54:48;;;;;;;16.30;7.53;;;;;;;15.55;100.00;-5218.19;5080094;28;20024;-70
2021/07/28 03:57:14;;;;;;;22.37;8.67;;;;;;;15.57;100.00;-4891.22;5081246;28;20256;-70
2021/07/28 03:59:42;;;;;;;19.90;8.23;;;;;;;15.62;100.00;-5218.38;5079758;28;20107;-70
2021/07/28 04:02:08;;;;;;;21.27;8.40;;;;;;;15.66;100.00;-9793.84;5074478;28;20020;-70
2021/07/28 04:04:34;;;;;;;18.60;8.03;;;;;;;15.69;100.00;-10773.84;5082293;28;20250;-70
2021/07/28 04:06:59;;;;;;;18.33;7.53;;;;;;;15.73;100.00;-16508.97;5079084;28;20024;-70
2021/07/28 04:09:25;;;;;;;22.20;8.13;;;;;;;15.76;100.00;-19564.09;5088773;28;20034;-70
2021/07/28 04:11:50;;;;;;;21.03;7.97;;;;;;;15.83;100.00;-19578.00;5079860;28;20604;-70
2021/07/28 04:14:16;;;;;;;22.33;8.53;;;;;;;15.86;100.00;-19578.66;5088862;28;21663;-70
2021/07/28 04:16:41;;;;;;;19.47;7.90;;;;;;;15.89;100.00;-19579.31;5079497;28;20032;-70
2021/07/28 04:19:07;;;;;;;18.83;7.40;;;;;;;15.94;100.00;-19580.63;5088393;28;20104;-70
2021/07/28 04:21:32;;;;;;;16.63;7.90;;;;;;;15.96;100.00;-19581.16;5079479;28;20074;-70
2021/07/28 04:23:58;;;;;;;19.60;7.67;;;;;;;16.00;100.00;-19582.19;5080413;28;20153;-70
2021/07/28 04:26:23;;;;;;;17.80;7.43;;;;;;;16.04;100.00;-19583.25;5078989;28;20065;-70
2021/07/28 04:28:50;;;;;;;16.60;6.87;;;;;;;16.05;100.00;-19583.50;5086504;28;20028;-70
2021/07/28 04:31:16;;;;;;;17.27;7.10;;;;;;;16.07;100.00;-19584.03;5078918;28;20035;-70
2021/07/28 04:33:41;;;;;;;17.27;7.17;;;;;;;16.06;100.00;-19583.91;5085381;28;20275;-70
2021/07/28 04:36:07;;;;;;;17.27;7.40;;;;;;;16.13;100.00;-19585.59;5079162;28;20069;-70
2021/07/28 04:38:32;;;;;;;15.87;7.13;;;;;;;16.22;100.00;-19587.94;5084178;28;20030;-70
2021/07/28 04:40:58;;;;;;;19.33;7.03;;;;;;;16.60;100.00;-19597.75;5079115;28;20291;-69
2021/07/28 04:43:23;;;;;;;14.57;7.13;;;;;;;16.70;100.00;-19600.22;5083058;28;20059;-69
2021/07/28 04:45:57;;;;;;;14.53;6.43;;;;;;;16.56;100.00;-19596.56;5078758;28;20468;-69
2021/07/28 04:48:22;;;;;;;20.07;7.17;;;;;;;16.64;100.00;-19598.66;5081604;28;20032;-72
2021/07/28 04:50:48;;;;;;;15.20;6.80;;;;;;;16.50;100.00;-19595.00;5078983;28;20024;-72
2021/07/28 04:53:13;;;;;;;15.23;6.93;;;;;;;16.53;100.00;-19595.91;5080070;28;20031;-72
2021/07/28 04:55:38;;;;;;;15.83;6.80;;;;;;;16.71;100.00;-19600.50;5079125;28;20040;-72
2021/07/28 04:58:04;;;;;;;17.37;6.83;;;;;;;16.84;100.00;-19603.91;5087494;28;20153;-72
2021/07/28 05:00:29;;;;;;;16.27;6.80;;;;;;;16.69;100.00;-19599.97;5084497;28;20251;-72
2021/07/28 05:02:55;;;;;;;15.87;6.63;;;;;;;16.47;100.00;-19594.34;5083139;28;20040;-70
2021/07/28 05:05:20;;;;;;;14.53;6.40;;;;;;;16.37;100.00;-19591.88;5084125;28;20027;-71
2021/07/28 05:07:46;;;;;;;14.83;6.53;;;;;;;16.32;100.00;-19590.56;5082531;28;20034;-70
2021/07/28 05:10:12;;;;;;;15.03;6.83;;;;;;;16.29;100.00;-19589.78;5078944;28;20028;-70
2021/07/28 05:12:37;;;;;;;17.10;7.10;;;;;;;16.24;100.00;-19588.47;5084035;28;20165;-70
2021/07/28 05:15:03;;;;;;;14.70;6.40;;;;;;;16.20;100.00;-19587.44;5083011;28;20238;-70
2021/07/28 05:17:28;;;;;;;13.53;6.60;;;;;;;16.41;100.00;-19592.91;5082277;28;20487;-70
2021/07/28 05:19:54;;;;;;;14.57;6.97;;;;;;;17.50;100.00;-19620.88;5080939;28;20036;-70
2021/07/28 05:22:19;;;;;;;17.33;6.30;;;;;;;18.31;100.00;-19641.59;5081234;28;20498;-69
2021/07/28 05:24:45;;;;;;;15.13;5.77;;;;;;;18.79;100.00;-19653.72;5084291;28;20033;-69
2021/07/28 05:27:10;;;;;;;12.13;5.50;;;;;;;18.12;100.00;-19636.66;5080193;28;20020;-70
2021/07/28 05:29:36;;;;;;;13.30;6.40;;;;;;;17.62;100.00;-19623.72;5084577;28;20122;-70
2021/07/28 05:32:01;;;;;;;15.80;6.10;;;;;;;17.26;100.00;-19614.59;5078893;28;20557;-70
2021/07/28 05:34:27;;;;;;;15.27;5.80;;;;;;;17.06;100.00;-19609.38;5084383;28;20031;-70
2021/07/28 05:36:57;;;;;;;13.00;5.87;;;;;;;17.07;100.00;-19609.63;5079039;28;20440;-70
2021/07/28 05:39:22;;;;;;;13.00;5.43;;;;;;;17.15;100.00;-19611.72;5083285;28;20644;-70
2021/07/28 05:41:48;;;;;;;12.70;6.07;;;;;;;17.27;100.00;-19614.84;5078793;28;20119;-70
2021/07/28 05:44:13;;;;;;;14.17;6.20;;;;;;;17.25;100.00;-19614.34;5082870;28;20112;-70
2021/07/28 05:46:39;;;;;;;14.03;6.03;;;;;;;17.18;100.00;-19612.50;5078692;28;20039;-70
2021/07/28 05:49:04;;;;;;;12.47;6.30;;;;;;;17.37;100.00;-19617.34;5081034;28;20596;-70
2021/07/28 05:51:30;;;;;;;9.87;5.10;;;;;;;18.64;100.00;-19650.06;5078684;28;20032;-70
2021/07/28 05:53:55;;;;;;;12.60;5.43;;;;;;;18.55;100.00;-19647.72;5080827;28;20188;-70
2021/07/28 05:56:20;;;;;;;11.17;5.37;;;;;;;19.06;100.00;-19660.75;5078621;28;20047;-70
2021/07/28 05:58:46;;;;;;;10.10;4.73;;;;;;;19.13;100.00;-19662.56;5081536;28;20067;-70
2021/07/28 06:01:11;;;;;;;11.77;4.93;;;;;;;19.30;100.00;-19666.88;5081969;28;20428;-69
2021/07/28 06:03:37;;;;;;;10.23;5.03;;;;;;;19.21;100.00;-19664.66;5095540;28;20024;-70
2021/07/28 06:06:02;;;;;;;11.20;5.15;;;;;;;18.95;100.00;-19657.88;5082400;28;20106;-70
2021/07/28 06:08:28;;;;;;;12.60;5.32;;;;;;;18.69;100.00;-19651.38;5093128;28;20020;-70
2021/07/28 06:10:53;;;;;;;12.15;4.78;;;;;;;18.49;100.00;-19646.03;5082426;28;20050;-70
2021/07/28 06:13:19;;;;;;;12.85;5.25;;;;;;;18.41;100.00;-19644.06;5092049;28;20287;-70
2021/07/28 06:15:47;;;;;;;10.73;4.68;;;;;;;18.67;100.00;-19650.84;5081890;28;20396;-70
2021/07/28 06:18:13;;;;;;;9.85;3.95;;;;;;;19.16;100.00;-19663.34;5090715;28;20056;-70
2021/07/28 06:20:38;;;;;;;8.52;4.78;;;;;;;19.05;100.00;-19660.50;5080533;28;20068;-70
2021/07/28 06:23:04;;;;;;;9.77;4.20;;;;;;;18.91;100.00;-19656.84;5090644;28;20135;-70
2021/07/28 06:25:29;;;;;;;10.20;4.10;;;;;;;18.58;100.00;-19648.38;5082398;28;20024;-70
2021/07/28 06:27:55;;;;;;;19.77;4.60;;;;;;;18.42;100.00;-19644.47;5089273;28;20177;-70
2021/07/28 06:30:20;;;;;;;11.30;4.70;;;;;;;18.58;100.00;-19648.50;5082227;28;20051;-70
2021/07/28 06:32:46;;;;;;;10.77;5.00;;;;;;;18.96;100.00;-19658.16;5088249;28;20042;-70
2021/07/28 06:35:12;;;;;;;11.93;5.97;;;;;;;19.28;100.00;-19666.47;5082175;28;20027;-69
2021/07/28 06:37:37;;;;;;;9.15;4.75;;;;;;;19.57;100.00;-19673.78;5086835;28;20123;-70
2021/07/28 06:40:04;;;;;;;7.82;4.47;;;;;;;20.76;100.00;-19704.34;5082043;28;20496;-69
2021/07/28 06:42:29;;;;;;;7.82;4.18;;;;;;;22.23;100.00;-19741.84;5085111;28;20391;-70
2021/07/28 06:44:55;;;;;;;8.15;4.20;;;;;;;21.86;100.00;-19732.38;5081632;28;20274;-70
2021/07/28 06:47:20;;;;;;;9.75;4.53;;;;;;;20.45;100.00;-19696.28;5084199;28;20462;-70
2021/07/28 06:49:46;;;;;;;7.72;4.32;;;;;;;20.04;100.00;-19685.75;5081973;28;20039;-70
2021/07/28 06:52:11;;;;;;;8.60;3.90;;;;;;;20.51;100.00;-19697.84;5083031;28;20360;-70
2021/07/28 06:54:37;;;;;;;9.85;4.05;;;;;;;20.12;100.00;-19687.81;5082082;28;20373;-70
2021/07/28 06:57:03;;;;;;;7.10;3.88;;;;;;;20.13;100.00;-19688.09;5081771;28;20046;-70
2021/07/28 06:59:28;;;;;;;9.98;4.22;;;;;;;20.03;100.00;-19685.47;5082426;28;20032;-70
2021/07/28 07:01:53;;;;;;;11.23;3.88;;;;;;;21.52;100.00;-19723.56;5081303;28;20476;-70
2021/07/28 07:04:19;;;;;;;8.00;3.88;;;;;;;22.37;100.00;-19745.22;5091292;28;20149;-70
2021/07/28 07:06:44;;;;;;;7.72;3.35;;;;;;;23.08;100.00;-19763.38;5079005;28;20385;-70
2021/07/28 07:09:10;;;;;;;6.80;3.40;;;;;;;22.41;100.00;-19746.38;5091502;28;20168;-70
2021/07/28 07:11:35;;;;;;;7.20;3.30;;;;;;;22.01;100.00;-19736.13;5081126;28;20028;-70
2021/07/28 07:14:01;;;;;;;7.50;3.63;;;;;;;21.81;100.00;-19730.94;5090780;28;20249;-70
2021/07/28 07:16:27;;;;;;;6.68;3.42;;;;;;;21.94;100.00;-19734.31;5081029;28;20534;-70
2021/07/28 07:18:52;;;;;;;8.43;3.85;;;;;;;20.85;100.00;-19706.41;5089961;28;20055;-70
2021/07/28 07:21:18;;;;;;;7.13;3.50;;;;;;;19.94;100.00;-19683.28;5081120;28;20031;-70
2021/07/28 07:23:43;;;;;;;11.98;4.40;;;;;;;19.80;100.00;-19679.75;5088508;28;20503;-70
2021/07/28 07:26:09;;;;;;;7.00;3.38;;;;;;;20.36;100.00;-19694.06;5080923;28;20689;-70
2021/07/28 07:28:35;;;;;;;9.52;3.80;;;;;;;19.97;100.00;-19683.91;5086904;28;20215;-70
2021/07/28 07:31:01;;;;;;;8.10;4.18;;;;;;;19.80;100.00;-19679.75;5080663;28;20060;-70
2021/07/28 07:33:42;;;;;;;7.90;3.97;;;;;;;20.34;100.00;-19693.53;5086219;28;20086;-70
2021/07/28 07:36:14;;;;;;;7.50;4.50;;;;;;;20.54;100.00;-19698.50;5080731;28;20027;-70
2021/07/28 07:38:43;;;;;;;9.65;4.30;;;;;;;20.45;100.00;-19696.41;5084744;28;20276;-70
2021/07/28 07:41:09;;;;;;;7.25;4.25;;;;;;;20.24;100.00;-19690.94;5080983;28;20396;-70
2021/07/28 07:43:34;;;;;;;8.10;4.45;;;;;;;20.43;100.00;-19695.75;5083101;28;20201;-70
2021/07/28 07:46:00;;;;;;;7.85;4.43;;;;;;;19.97;100.00;-19683.91;5080152;28;20028;-70
2021/07/28 07:48:26;;;;;;;9.20;4.70;;;;;;;19.94;100.00;-19683.13;5082259;28;20070;-70
2021/07/28 07:50:52;;;;;;;8.95;5.10;;;;;;;20.17;100.00;-19689.13;5080578;28;20027;-70
2021/07/28 07:53:18;;;;;;;8.60;5.75;;;;;;;19.96;100.00;-19683.66;5080841;28;20144;-70
2021/07/28 07:55:44;;;;;;;8.95;4.88;;;;;;;19.63;100.00;-19675.22;5080277;28;20202;-70
2021/07/28 07:58:09;;;;;;;8.07;4.43;;;;;;;19.45;100.00;-19670.66;5089449;28;20127;-70
2021/07/28 08:00:35;;;;;;;9.88;4.97;;;;;;;19.58;100.00;-19674.03;5083564;28;20016;-70
2021/07/28 08:03:01;;;;;;;8.80;4.82;;;;;;;19.87;100.00;-19681.59;5088278;28;20023;-70
2021/07/28 08:05:26;;;;;;;9.38;4.65;;;;;;;20.24;100.00;-19690.94;5083698;28;20385;-70
2021/07/28 08:07:52;;;;;;;8.60;4.60;;;;;;;20.17;100.00;-19689.13;5087071;28;20042;-70
2021/07/28 08:10:18;;;;;;;10.30;5.10;;;;;;;20.14;100.00;-19688.47;5084009;28;20028;-70
2021/07/28 08:12:43;;;;;;;12.35;6.00;;;;;;;20.25;100.00;-19691.06;5085709;28;20030;-70
2021/07/28 08:15:09;;;;;;;9.43;5.72;;;;;;;20.14;100.00;-19688.47;5083391;28;20051;-70
2021/07/28 08:17:35;;;;;;;10.32;5.43;;;;;;;20.16;100.00;-19689.00;5084255;28;20130;-70
2021/07/28 08:20:01;;;;;;;9.27;5.45;;;;;;;20.41;100.00;-19695.38;5083979;28;20477;-70
2021/07/28 08:22:27;;;;;;;8.95;5.13;;;;;;;20.75;100.00;-19703.94;5083068;28;20280;-70
2021/07/28 08:24:53;;;;;;;8.25;5.00;;;;;;;20.81;100.00;-19705.50;5083717;28;20181;-70
2021/07/28 08:27:19;;;;;;;10.48;5.82;;;;;;;20.28;100.00;-19691.97;5081994;28;20411;-70
2021/07/28 08:29:44;;;;;;;9.27;5.07;;;;;;;20.09;100.00;-19687.16;5083460;28;20511;-70
2021/07/28 08:32:09;;;;;;;7.90;4.82;;;;;;;20.32;100.00;-19693.03;5080435;28;20451;-70
2021/07/28 08:34:35;;;;;;;12.23;6.28;;;;;;;20.83;100.00;-19706.03;5083670;28;20119;-70
2021/07/28 08:37:01;;;;;;;10.93;5.93;;;;;;;20.63;100.00;-19700.81;5079859;28;20518;-70
2021/07/28 08:39:26;;;;;;;10.60;5.45;;;;;;;20.28;100.00;-19691.97;5083157;28;20571;-71
2021/07/28 08:41:53;;;;;;;10.10;6.03;;;;;;;20.51;100.00;-19697.72;5079930;28;20396;-70
2021/07/28 08:44:21;;;;;;;9.50;5.15;;;;;;;20.88;100.00;-19707.31;5081643;28;20062;-70
2021/07/28 08:46:49;;;;;;;9.35;5.10;;;;;;;21.26;100.00;-19716.94;5079438;28;20469;-70
2021/07/28 08:49:15;;;;;;;8.52;4.65;;;;;;;21.50;100.00;-19723.16;5080113;28;20039;-70
2021/07/28 08:51:44;;;;;;;8.15;4.68;;;;;;;21.99;100.00;-19735.50;5079468;28;20020;-70
2021/07/28 08:54:10;;;;;;;7.35;3.97;;;;;;;22.93;100.00;-19759.47;5092941;28;20342;-70
2021/07/28 08:56:40;;;;;;;7.20;4.03;;;;;;;23.28;100.00;-19768.53;5079455;28;20016;-70
2021/07/28 08:59:22;;;;;;;5.40;3.38;;;;;;;23.08;100.00;-19763.38;5091260;28;20028;-70
2021/07/28 09:01:47;;;;;;;6.90;3.47;;;;;;;21.88;100.00;-19732.91;5079073;28;20441;-71
2021/07/28 09:04:13;;;;;;;7.93;3.67;;;;;;;21.86;100.00;-19732.25;5090096;28;20055;-70
2021/07/28 09:06:38;;;;;;;7.70;4.15;;;;;;;21.85;100.00;-19732.00;5079091;28;20112;-70
2021/07/28 09:09:04;;;;;;;6.05;3.35;;;;;;;23.27;100.00;-19768.28;5089585;28;20108;-70
2021/07/28 09:11:29;;;;;;;7.47;3.30;;;;;;;23.48;100.00;-19773.47;5079349;28;20074;-71
2021/07/28 09:13:57;;;;;;;5.72;3.47;;;;;;;21.89;100.00;-19733.16;5087348;28;20730;-70
2021/07/28 09:16:22;;;;;;;8.02;3.95;;;;;;;22.76;100.00;-19755.31;5079106;28;20044;-70
2021/07/28 09:18:52;;;;;;;6.43;3.65;;;;;;;22.70;100.00;-19753.66;5087081;28;20140;-70
2021/07/28 09:21:31;;;;;;;5.57;3.40;;;;;;;22.04;100.00;-19736.91;5078908;28;20036;-70
2021/07/28 09:24:15;;;;;;;8.23;4.03;;;;;;;21.50;100.00;-19723.16;5085882;28;20122;-70
2021/07/28 09:26:45;;;;;;;6.85;4.18;;;;;;;21.60;100.00;-19725.63;5079450;28;20526;-70
2021/07/28 09:29:25;;;;;;;8.15;4.32;;;;;;;21.54;100.00;-19724.19;5085057;28;20476;-70
2021/07/28 09:31:53;;;;;;;9.20;4.50;;;;;;;22.32;100.00;-19743.94;5079264;28;20389;-70
2021/07/28 09:34:39;;;;;;;8.05;4.35;;;;;;;22.37;100.00;-19745.22;5086525;28;20404;-70
2021/07/28 09:37:17;;;;;;;6.85;4.13;;;;;;;22.27;100.00;-19742.63;5082832;28;20048;-70
2021/07/28 09:39:47;;;;;;;7.68;4.18;;;;;;;22.06;100.00;-19737.44;5084230;28;20038;-70
2021/07/28 09:42:26;;;;;;;9.18;4.57;;;;;;;22.38;100.00;-19745.47;5083854;28;20066;-70
2021/07/28 09:44:56;;;;;;;7.18;4.47;;;;;;;22.54;100.00;-19749.63;5070550;28;20031;-70
2021/07/28 09:47:38;;;;;;;8.80;4.63;;;;;;;22.05;100.00;-19737.03;5083446;28;20438;-70
2021/07/28 09:50:22;;;;;;;8.20;4.97;;;;;;;21.94;100.00;-19734.31;5082982;28;20036;-70
2021/07/28 09:52:51;;;;;;;8.45;4.97;;;;;;;21.85;100.00;-19732.00;5088674;28;20024;-70
2021/07/28 09:55:27;;;;;;;12.05;4.32;;;;;;;21.74;100.00;-19729.13;5090136;28;20020;-70
2021/07/28 09:57:57;;;;;;;8.35;4.47;;;;;;;21.72;100.00;-19728.75;5089317;28;20046;-70
2021/07/28 10:00:26;;;;;;;9.88;4.47;;;;;;;22.14;100.00;-19739.38;5086996;28;20028;-70
2021/07/28 10:02:53;;;;;;;7.60;4.72;;;;;;;21.97;100.00;-19734.97;5088904;28;20027;-70
2021/07/28 10:05:19;;;;;;;6.75;4.28;;;;;;;22.32;100.00;-19744.06;5086223;28;20354;-70
2021/07/28 10:07:47;;;;;;;7.40;4.85;;;;;;;22.24;100.00;-19741.97;5088144;28;20027;-70
2021/07/28 10:10:13;;;;;;;8.23;4.65;;;;;;;22.30;100.00;-19743.53;5087175;28;20162;-70
2021/07/28 10:12:40;;;;;;;7.47;4.22;;;;;;;22.23;100.00;-19741.84;5087326;28;20396;-70
2021/07/28 10:15:08;;;;;;;6.90;3.90;;;;;;;23.44;100.00;-19772.44;5086274;28;20131;-70
2021/07/28 10:17:35;;;;;;;7.28;3.80;;;;;;;23.66;100.00;-19778.13;5086273;28;20023;-70
2021/07/28 10:20:01;;;;;;;7.57;3.67;;;;;;;23.82;100.00;-19782.13;5085730;28;20020;-70
2021/07/28 10:22:27;;;;;;;8.13;4.18;;;;;;;23.18;100.00;-19765.94;5085480;28;20350;-70
2021/07/28 10:24:54;;;;;;;6.28;3.78;;;;;;;23.19;100.00;-19766.22;5085604;28;20035;-70
2021/07/28 10:27:21;;;;;;;8.88;4.07;;;;;;;22.67;100.00;-19753.00;5084110;28;20341;-70
2021/07/28 10:29:50;;;;;;;6.07;3.90;;;;;;;21.97;100.00;-19734.97;5085344;28;20651;-70
2021/07/28 10:32:32;;;;;;;7.95;4.13;;;;;;;21.50;100.00;-19723.16;5083164;28;20024;-70
2021/07/28 10:35:28;;;;;;;7.22;3.90;;;;;;;21.06;100.00;-19711.88;5081802;28;20024;-70
2021/07/28 10:37:55;;;;;;;8.10;4.82;;;;;;;20.31;100.00;-19692.75;5002251;28;20041;-70
2021/07/28 10:40:50;;;;;;;14.55;6.03;;;;;;;19.56;100.00;-19673.50;4998788;28;20029;-70
2021/07/28 10:43:16;;;;;;;13.07;5.50;;;;;;;18.92;100.00;-19657.25;4991431;28;20113;-70
2021/07/28 10:45:56;;;;;;;13.38;5.63;;;;;;;18.60;100.00;-19649.03;4997335;28;20120;-69
2021/07/28 10:48:48;;;;;;;9.95;6.35;;;;;;;18.55;100.00;-19647.72;4999669;28;20174;-69
2021/07/28 10:51:32;;;;;;;;;;;;;;;18.55;100.00;-19647.72;4996842;28;20081;-69
2021/07/28 10:53:57;;;;;;;14.10;6.83;;;;;;;18.79;100.00;-19653.72;5011959;28;19923;-69
2021/07/28 10:56:23;;;;;;;10.63;5.73;;;;;;;18.79;100.00;-19653.72;4998809;28;20042;-69
2021/07/28 10:58:48;;;;;;;11.20;5.77;;;;;;;18.73;100.00;-19652.41;5010505;28;20107;-69
2021/07/28 11:01:14;;;;;;;11.30;5.53;;;;;;;18.47;100.00;-19645.50;4998873;28;20131;-69
2021/07/28 11:03:39;;;;;;;11.17;6.07;;;;;;;18.12;100.00;-19636.78;5009355;28;20033;-69
2021/07/28 11:06:19;;;;;;;13.13;6.97;;;;;;;17.70;100.00;30.41;4998496;28;20026;-69
2021/07/28 11:08:45;;;;;;;11.73;6.33;;;;;;;17.54;100.00;20794.13;5009008;28;20038;-69
2021/07/28 11:11:20;;;;;;;10.03;5.93;;;;;;;17.40;100.00;26413.00;4998838;28;20463;-69
2021/07/28 11:13:46;;;;;;;11.80;6.50;;;;;;;17.52;100.00;40024.91;5009595;28;20266;-69
2021/07/28 11:16:11;;;;;;;12.40;6.40;;;;;;;17.47;100.00;31719.25;5072737;28;20048;-69
2021/07/28 11:18:49;;;;;;;13.30;6.97;;;;;;;17.57;100.00;30730.00;5085847;28;20028;-69